Airfield :
LOGIN :

Register | Disclaimer

   EN    FR    IT 

 










Legend :    VFR   Marginal VFR   IFR   Intensive IFR   Very Intensive IFR
Visi :
Ceiling :
>= 8 km
>= 3000ft
5 to 8 km
1000 to 3000 ft
1500m to 5 km
500 to 1000 ft
800 to 1500m
200 to 500 ft
< 800m
< 200 ft
Symbols :   Thunderstorms  Fog  Heavy snow  Heavy precipitations  Wind > 20 kt
SIGMETs :     Misc.  Thunderstorms  Icing  Turbulence  Mountain Waves  Volcanic Ashes






- Airport Elevation : 308 ft
- IATA code : POZ


EPPO - Poznan-Lawica

CURRENT METAR :
  • 112100Z 13010KT 8000 NSC M02/M05 Q1008

EXPIRED METARs :
  • 112030Z 13009KT 8000 NSC M02/M05 Q1009
  • 112000Z 12010KT CAVOK M01/M05 Q1009
  • 111930Z 12009KT CAVOK M01/M05 Q1009
  • 111900Z 12008KT CAVOK M02/M05 Q1010
  • 111830Z 13008KT CAVOK M01/M05 Q1010

TAF TAF EPPO
Valid from the 11 at 18:00 until the 12 at 18:00 UTC


111730Z 1118/1218 14008KT CAVOK
BECMG 1209/1211 20010KT
BECMG 1212/1214 BKN014
TEMPO 1216/1218 3000 -SNRA BR BKN009



MET'MAP, your aeronautical weather chart ! - Copyright ORBIFLY December 2007 - Disclaimer

ORBIFLY MET'MAP TEAM :

Programming & Development : Alexandra Zaïnal
Concept & original design : Baudouin d'Aumeries
Assistance for programming : Marc-Olivier Méhu
Technical & hardware support : Manuel Goepfert

Contact : metmap@orbifly.com




SOURCES & CREDITS :

   NOAA